sensor_id;sensor_type;location;lat;lon;timestamp;P1;durP1;ratioP1;P2;durP2;ratioP2
42518;SDS011;28147;47.520;18.920;2024-02-23T00:01:26;2.65;;;1.30;;
42518;SDS011;28147;47.520;18.920;2024-02-23T00:03:51;2.88;;;1.40;;
42518;SDS011;28147;47.520;18.920;2024-02-23T00:06:16;2.38;;;1.20;;
42518;SDS011;28147;47.520;18.920;2024-02-23T00:08:42;2.65;;;1.30;;
42518;SDS011;28147;47.520;18.920;2024-02-23T00:11:08;3.00;;;1.25;;
42518;SDS011;28147;47.520;18.920;2024-02-23T00:13:33;4.07;;;1.33;;
42518;SDS011;28147;47.520;18.920;2024-02-23T00:15:58;2.38;;;1.10;;
42518;SDS011;28147;47.520;18.920;2024-02-23T00:18:24;3.25;;;1.65;;
42518;SDS011;28147;47.520;18.920;2024-02-23T00:20:49;2.22;;;1.27;;
42518;SDS011;28147;47.520;18.920;2024-02-23T00:23:14;3.25;;;1.50;;
42518;SDS011;28147;47.520;18.920;2024-02-23T00:25:39;2.33;;;1.23;;
42518;SDS011;28147;47.520;18.920;2024-02-23T00:28:05;3.78;;;1.52;;
42518;SDS011;28147;47.520;18.920;2024-02-23T00:30:30;3.38;;;1.48;;
42518;SDS011;28147;47.520;18.920;2024-02-23T00:32:56;2.10;;;1.25;;
42518;SDS011;28147;47.520;18.920;2024-02-23T00:35:21;3.63;;;1.92;;
42518;SDS011;28147;47.520;18.920;2024-02-23T00:37:46;2.50;;;1.10;;
42518;SDS011;28147;47.520;18.920;2024-02-23T00:40:12;3.13;;;1.55;;
42518;SDS011;28147;47.520;18.920;2024-02-23T00:43:55;3.47;;;1.50;;
42518;SDS011;28147;47.520;18.920;2024-02-23T00:46:20;2.67;;;1.42;;
42518;SDS011;28147;47.520;18.920;2024-02-23T00:49:23;3.90;;;1.60;;
42518;SDS011;28147;47.520;18.920;2024-02-23T00:51:48;2.38;;;1.30;;
42518;SDS011;28147;47.520;18.920;2024-02-23T00:54:14;2.85;;;1.48;;
42518;SDS011;28147;47.520;18.920;2024-02-23T00:56:39;3.20;;;1.67;;
42518;SDS011;28147;47.520;18.920;2024-02-23T00:59:04;2.55;;;1.35;;
42518;SDS011;28147;47.520;18.920;2024-02-23T01:01:30;3.10;;;1.52;;
42518;SDS011;28147;47.520;18.920;2024-02-23T01:03:57;2.58;;;1.40;;
42518;SDS011;28147;47.520;18.920;2024-02-23T01:06:23;4.30;;;1.40;;
42518;SDS011;28147;47.520;18.920;2024-02-23T01:08:48;2.85;;;1.73;;
42518;SDS011;28147;47.520;18.920;2024-02-23T01:11:14;3.70;;;1.70;;
42518;SDS011;28147;47.520;18.920;2024-02-23T01:14:22;2.97;;;1.55;;
42518;SDS011;28147;47.520;18.920;2024-02-23T01:16:48;2.63;;;1.50;;
42518;SDS011;28147;47.520;18.920;2024-02-23T01:19:13;2.70;;;1.58;;
42518;SDS011;28147;47.520;18.920;2024-02-23T01:21:40;3.75;;;2.00;;
42518;SDS011;28147;47.520;18.920;2024-02-23T01:24:06;2.42;;;1.48;;
42518;SDS011;28147;47.520;18.920;2024-02-23T01:26:31;2.65;;;1.50;;
42518;SDS011;28147;47.520;18.920;2024-02-23T01:28:56;3.03;;;1.52;;
42518;SDS011;28147;47.520;18.920;2024-02-23T01:31:24;2.13;;;1.50;;
42518;SDS011;28147;47.520;18.920;2024-02-23T01:33:52;2.25;;;1.35;;
42518;SDS011;28147;47.520;18.920;2024-02-23T01:36:17;4.55;;;1.85;;
42518;SDS011;28147;47.520;18.920;2024-02-23T01:38:43;3.95;;;2.00;;
42518;SDS011;28147;47.520;18.920;2024-02-23T01:41:08;2.38;;;1.48;;
42518;SDS011;28147;47.520;18.920;2024-02-23T01:43:34;3.35;;;1.70;;
42518;SDS011;28147;47.520;18.920;2024-02-23T01:45:59;3.47;;;2.13;;
42518;SDS011;28147;47.520;18.920;2024-02-23T01:48:24;4.60;;;1.77;;
42518;SDS011;28147;47.520;18.920;2024-02-23T01:50:51;4.57;;;2.10;;
42518;SDS011;28147;47.520;18.920;2024-02-23T01:53:16;4.03;;;1.83;;
42518;SDS011;28147;47.520;18.920;2024-02-23T01:55:45;5.07;;;2.30;;
42518;SDS011;28147;47.520;18.920;2024-02-23T01:58:11;6.78;;;2.30;;
42518;SDS011;28147;47.520;18.920;2024-02-23T02:00:36;5.93;;;3.15;;
42518;SDS011;28147;47.520;18.920;2024-02-23T02:03:02;4.30;;;2.53;;
42518;SDS011;28147;47.520;18.920;2024-02-23T02:05:28;3.75;;;1.77;;
42518;SDS011;28147;47.520;18.920;2024-02-23T02:07:53;5.82;;;2.67;;
42518;SDS011;28147;47.520;18.920;2024-02-23T02:12:49;3.42;;;2.03;;
42518;SDS011;28147;47.520;18.920;2024-02-23T02:15:14;3.83;;;1.98;;
42518;SDS011;28147;47.520;18.920;2024-02-23T02:17:39;6.43;;;2.50;;
42518;SDS011;28147;47.520;18.920;2024-02-23T02:20:05;4.05;;;2.05;;
42518;SDS011;28147;47.520;18.920;2024-02-23T02:22:36;4.78;;;1.98;;
42518;SDS011;28147;47.520;18.920;2024-02-23T02:25:02;4.28;;;2.20;;
42518;SDS011;28147;47.520;18.920;2024-02-23T02:27:28;3.45;;;2.00;;
42518;SDS011;28147;47.520;18.920;2024-02-23T02:29:53;5.03;;;2.70;;
42518;SDS011;28147;47.520;18.920;2024-02-23T02:32:18;6.25;;;2.63;;
42518;SDS011;28147;47.520;18.920;2024-02-23T02:34:44;6.07;;;3.13;;
42518;SDS011;28147;47.520;18.920;2024-02-23T02:37:09;6.50;;;2.90;;
42518;SDS011;28147;47.520;18.920;2024-02-23T02:39:34;5.55;;;2.83;;
42518;SDS011;28147;47.520;18.920;2024-02-23T02:42:01;3.75;;;2.25;;
42518;SDS011;28147;47.520;18.920;2024-02-23T02:44:26;3.40;;;2.15;;
42518;SDS011;28147;47.520;18.920;2024-02-23T02:46:55;6.35;;;2.03;;
42518;SDS011;28147;47.520;18.920;2024-02-23T02:49:20;3.50;;;2.00;;
42518;SDS011;28147;47.520;18.920;2024-02-23T02:51:45;3.70;;;1.80;;
42518;SDS011;28147;47.520;18.920;2024-02-23T02:54:11;3.63;;;2.10;;
42518;SDS011;28147;47.520;18.920;2024-02-23T02:56:36;4.30;;;2.38;;
42518;SDS011;28147;47.520;18.920;2024-02-23T02:59:06;3.78;;;2.00;;
42518;SDS011;28147;47.520;18.920;2024-02-23T03:03:00;5.18;;;1.88;;
42518;SDS011;28147;47.520;18.920;2024-02-23T03:05:26;4.57;;;1.92;;
42518;SDS011;28147;47.520;18.920;2024-02-23T03:09:34;4.85;;;1.98;;
42518;SDS011;28147;47.520;18.920;2024-02-23T03:11:59;4.95;;;2.15;;
42518;SDS011;28147;47.520;18.920;2024-02-23T03:14:25;5.47;;;2.10;;
42518;SDS011;28147;47.520;18.920;2024-02-23T03:16:50;4.57;;;2.80;;
42518;SDS011;28147;47.520;18.920;2024-02-23T03:19:15;4.80;;;2.65;;
42518;SDS011;28147;47.520;18.920;2024-02-23T03:21:41;6.88;;;2.42;;
42518;SDS011;28147;47.520;18.920;2024-02-23T03:24:06;4.70;;;2.38;;
42518;SDS011;28147;47.520;18.920;2024-02-23T03:28:35;4.00;;;2.25;;
42518;SDS011;28147;47.520;18.920;2024-02-23T03:31:01;4.32;;;2.50;;
42518;SDS011;28147;47.520;18.920;2024-02-23T03:33:26;4.43;;;2.42;;
42518;SDS011;28147;47.520;18.920;2024-02-23T03:35:52;5.47;;;2.60;;
42518;SDS011;28147;47.520;18.920;2024-02-23T03:38:17;4.72;;;2.45;;
42518;SDS011;28147;47.520;18.920;2024-02-23T03:40:43;5.32;;;3.03;;
42518;SDS011;28147;47.520;18.920;2024-02-23T03:43:08;4.90;;;2.85;;
42518;SDS011;28147;47.520;18.920;2024-02-23T03:45:33;6.07;;;2.80;;
42518;SDS011;28147;47.520;18.920;2024-02-23T03:48:02;6.88;;;2.67;;
42518;SDS011;28147;47.520;18.920;2024-02-23T03:50:29;4.13;;;2.47;;
42518;SDS011;28147;47.520;18.920;2024-02-23T03:52:55;4.05;;;2.40;;
42518;SDS011;28147;47.520;18.920;2024-02-23T03:55:20;4.00;;;2.40;;
42518;SDS011;28147;47.520;18.920;2024-02-23T03:57:47;4.72;;;2.72;;
42518;SDS011;28147;47.520;18.920;2024-02-23T04:00:12;4.60;;;2.58;;
42518;SDS011;28147;47.520;18.920;2024-02-23T04:02:38;5.60;;;2.90;;
42518;SDS011;28147;47.520;18.920;2024-02-23T04:05:04;5.10;;;2.97;;
42518;SDS011;28147;47.520;18.920;2024-02-23T04:07:30;5.22;;;2.63;;
42518;SDS011;28147;47.520;18.920;2024-02-23T04:09:55;6.20;;;3.20;;
42518;SDS011;28147;47.520;18.920;2024-02-23T04:12:21;5.20;;;2.72;;
42518;SDS011;28147;47.520;18.920;2024-02-23T04:14:46;6.35;;;3.20;;
42518;SDS011;28147;47.520;18.920;2024-02-23T04:17:12;6.88;;;3.40;;
42518;SDS011;28147;47.520;18.920;2024-02-23T04:19:38;5.05;;;2.92;;
42518;SDS011;28147;47.520;18.920;2024-02-23T04:22:06;5.00;;;2.67;;
42518;SDS011;28147;47.520;18.920;2024-02-23T04:24:35;6.05;;;2.85;;
42518;SDS011;28147;47.520;18.920;2024-02-23T04:27:01;4.22;;;2.47;;
42518;SDS011;28147;47.520;18.920;2024-02-23T04:29:27;5.03;;;2.70;;
42518;SDS011;28147;47.520;18.920;2024-02-23T04:31:52;5.18;;;2.58;;
42518;SDS011;28147;47.520;18.920;2024-02-23T04:34:17;7.00;;;3.03;;
42518;SDS011;28147;47.520;18.920;2024-02-23T04:36:43;3.13;;;1.95;;
42518;SDS011;28147;47.520;18.920;2024-02-23T04:39:08;5.30;;;2.88;;
42518;SDS011;28147;47.520;18.920;2024-02-23T04:41:33;6.18;;;2.33;;
42518;SDS011;28147;47.520;18.920;2024-02-23T04:43:59;4.65;;;2.33;;
42518;SDS011;28147;47.520;18.920;2024-02-23T04:46:26;3.38;;;2.00;;
42518;SDS011;28147;47.520;18.920;2024-02-23T04:48:51;4.50;;;2.53;;
42518;SDS011;28147;47.520;18.920;2024-02-23T04:51:17;3.75;;;2.13;;
42518;SDS011;28147;47.520;18.920;2024-02-23T04:53:42;4.43;;;2.00;;
42518;SDS011;28147;47.520;18.920;2024-02-23T04:56:07;5.15;;;2.45;;
42518;SDS011;28147;47.520;18.920;2024-02-23T04:58:33;4.00;;;2.08;;
42518;SDS011;28147;47.520;18.920;2024-02-23T05:00:58;4.10;;;2.17;;
42518;SDS011;28147;47.520;18.920;2024-02-23T05:03:23;3.75;;;2.13;;
42518;SDS011;28147;47.520;18.920;2024-02-23T05:05:49;4.90;;;2.03;;
42518;SDS011;28147;47.520;18.920;2024-02-23T05:08:18;6.75;;;1.83;;
42518;SDS011;28147;47.520;18.920;2024-02-23T05:10:44;3.30;;;1.75;;
42518;SDS011;28147;47.520;18.920;2024-02-23T05:13:09;3.70;;;2.10;;
42518;SDS011;28147;47.520;18.920;2024-02-23T05:15:35;4.28;;;2.60;;
42518;SDS011;28147;47.520;18.920;2024-02-23T05:18:00;2.97;;;1.90;;
42518;SDS011;28147;47.520;18.920;2024-02-23T05:20:25;3.22;;;1.58;;
42518;SDS011;28147;47.520;18.920;2024-02-23T05:22:50;5.78;;;1.63;;
42518;SDS011;28147;47.520;18.920;2024-02-23T05:25:16;3.28;;;1.73;;
42518;SDS011;28147;47.520;18.920;2024-02-23T05:27:41;3.20;;;1.48;;
42518;SDS011;28147;47.520;18.920;2024-02-23T05:30:07;3.70;;;1.65;;
42518;SDS011;28147;47.520;18.920;2024-02-23T05:32:33;3.22;;;1.70;;
42518;SDS011;28147;47.520;18.920;2024-02-23T05:34:58;3.35;;;1.80;;
42518;SDS011;28147;47.520;18.920;2024-02-23T05:37:23;2.35;;;1.40;;
42518;SDS011;28147;47.520;18.920;2024-02-23T05:39:49;2.50;;;1.52;;
42518;SDS011;28147;47.520;18.920;2024-02-23T05:42:14;2.95;;;1.20;;
42518;SDS011;28147;47.520;18.920;2024-02-23T05:44:43;2.05;;;1.10;;
42518;SDS011;28147;47.520;18.920;2024-02-23T05:47:08;3.22;;;1.63;;
42518;SDS011;28147;47.520;18.920;2024-02-23T05:49:34;2.75;;;1.00;;
42518;SDS011;28147;47.520;18.920;2024-02-23T05:52:00;2.28;;;1.10;;
42518;SDS011;28147;47.520;18.920;2024-02-23T05:54:25;2.50;;;1.05;;
42518;SDS011;28147;47.520;18.920;2024-02-23T05:56:51;2.22;;;1.05;;
42518;SDS011;28147;47.520;18.920;2024-02-23T05:59:16;1.77;;;1.15;;
42518;SDS011;28147;47.520;18.920;2024-02-23T06:01:41;3.30;;;1.30;;
42518;SDS011;28147;47.520;18.920;2024-02-23T06:04:07;4.10;;;1.63;;
42518;SDS011;28147;47.520;18.920;2024-02-23T06:06:32;3.15;;;1.23;;
42518;SDS011;28147;47.520;18.920;2024-02-23T06:08:57;3.00;;;1.30;;
42518;SDS011;28147;47.520;18.920;2024-02-23T06:11:23;1.95;;;0.98;;
42518;SDS011;28147;47.520;18.920;2024-02-23T06:13:48;1.67;;;0.80;;
42518;SDS011;28147;47.520;18.920;2024-02-23T06:16:13;1.80;;;0.80;;
42518;SDS011;28147;47.520;18.920;2024-02-23T06:18:39;2.00;;;0.80;;
42518;SDS011;28147;47.520;18.920;2024-02-23T06:21:14;3.90;;;1.17;;
42518;SDS011;28147;47.520;18.920;2024-02-23T06:23:40;1.58;;;0.85;;
42518;SDS011;28147;47.520;18.920;2024-02-23T06:26:06;2.58;;;1.13;;
42518;SDS011;28147;47.520;18.920;2024-02-23T06:28:32;2.22;;;1.35;;
42518;SDS011;28147;47.520;18.920;2024-02-23T06:30:58;3.15;;;1.60;;
42518;SDS011;28147;47.520;18.920;2024-02-23T06:33:23;2.88;;;1.55;;
42518;SDS011;28147;47.520;18.920;2024-02-23T06:35:48;4.72;;;1.80;;
42518;SDS011;28147;47.520;18.920;2024-02-23T06:38:14;3.15;;;1.25;;
42518;SDS011;28147;47.520;18.920;2024-02-23T06:40:40;4.82;;;1.40;;
42518;SDS011;28147;47.520;18.920;2024-02-23T06:43:05;2.00;;;1.13;;
42518;SDS011;28147;47.520;18.920;2024-02-23T06:46:51;3.08;;;1.67;;
42518;SDS011;28147;47.520;18.920;2024-02-23T06:50:57;1.77;;;1.00;;
42518;SDS011;28147;47.520;18.920;2024-02-23T06:53:22;3.72;;;1.40;;
42518;SDS011;28147;47.520;18.920;2024-02-23T06:55:47;3.65;;;1.70;;
42518;SDS011;28147;47.520;18.920;2024-02-23T06:58:13;3.15;;;1.67;;
42518;SDS011;28147;47.520;18.920;2024-02-23T07:00:39;4.13;;;1.50;;
42518;SDS011;28147;47.520;18.920;2024-02-23T07:03:05;3.60;;;2.13;;
42518;SDS011;28147;47.520;18.920;2024-02-23T07:05:30;3.08;;;1.80;;
42518;SDS011;28147;47.520;18.920;2024-02-23T07:07:55;5.90;;;1.90;;
42518;SDS011;28147;47.520;18.920;2024-02-23T07:10:21;2.65;;;1.30;;
42518;SDS011;28147;47.520;18.920;2024-02-23T07:12:47;3.90;;;1.65;;
42518;SDS011;28147;47.520;18.920;2024-02-23T07:15:13;3.63;;;1.70;;
42518;SDS011;28147;47.520;18.920;2024-02-23T07:17:39;6.07;;;2.08;;
42518;SDS011;28147;47.520;18.920;2024-02-23T07:20:04;3.80;;;1.80;;
42518;SDS011;28147;47.520;18.920;2024-02-23T07:22:32;2.55;;;1.70;;
42518;SDS011;28147;47.520;18.920;2024-02-23T07:24:59;4.82;;;2.22;;
42518;SDS011;28147;47.520;18.920;2024-02-23T07:27:26;3.88;;;2.30;;
42518;SDS011;28147;47.520;18.920;2024-02-23T07:29:52;3.03;;;2.00;;
42518;SDS011;28147;47.520;18.920;2024-02-23T07:32:17;3.42;;;2.10;;
42518;SDS011;28147;47.520;18.920;2024-02-23T07:34:42;4.07;;;2.55;;
42518;SDS011;28147;47.520;18.920;2024-02-23T07:37:07;4.55;;;2.47;;
42518;SDS011;28147;47.520;18.920;2024-02-23T07:39:33;4.00;;;2.00;;
42518;SDS011;28147;47.520;18.920;2024-02-23T07:41:58;4.95;;;2.35;;
42518;SDS011;28147;47.520;18.920;2024-02-23T07:44:23;4.32;;;2.40;;
42518;SDS011;28147;47.520;18.920;2024-02-23T07:46:50;4.78;;;2.35;;
42518;SDS011;28147;47.520;18.920;2024-02-23T07:49:17;3.83;;;2.00;;
42518;SDS011;28147;47.520;18.920;2024-02-23T07:51:42;4.72;;;2.20;;
42518;SDS011;28147;47.520;18.920;2024-02-23T07:54:08;5.18;;;2.42;;
42518;SDS011;28147;47.520;18.920;2024-02-23T07:56:33;5.00;;;2.97;;
42518;SDS011;28147;47.520;18.920;2024-02-23T07:58:58;4.10;;;2.40;;
42518;SDS011;28147;47.520;18.920;2024-02-23T08:03:02;4.90;;;2.70;;
42518;SDS011;28147;47.520;18.920;2024-02-23T08:05:27;7.35;;;3.15;;
42518;SDS011;28147;47.520;18.920;2024-02-23T08:07:52;6.82;;;3.25;;
42518;SDS011;28147;47.520;18.920;2024-02-23T08:10:18;5.78;;;3.20;;
42518;SDS011;28147;47.520;18.920;2024-02-23T08:12:43;5.10;;;3.15;;
42518;SDS011;28147;47.520;18.920;2024-02-23T08:15:09;5.43;;;3.03;;
42518;SDS011;28147;47.520;18.920;2024-02-23T08:17:34;5.68;;;3.05;;
42518;SDS011;28147;47.520;18.920;2024-02-23T08:19:59;4.85;;;2.58;;
42518;SDS011;28147;47.520;18.920;2024-02-23T08:22:25;6.03;;;3.22;;
42518;SDS011;28147;47.520;18.920;2024-02-23T08:24:50;8.93;;;2.97;;
42518;SDS011;28147;47.520;18.920;2024-02-23T08:27:16;4.65;;;2.63;;
42518;SDS011;28147;47.520;18.920;2024-02-23T08:29:41;5.78;;;2.42;;
42518;SDS011;28147;47.520;18.920;2024-02-23T08:32:07;3.80;;;2.03;;
42518;SDS011;28147;47.520;18.920;2024-02-23T08:34:32;4.55;;;2.33;;
42518;SDS011;28147;47.520;18.920;2024-02-23T08:36:59;4.15;;;1.92;;
42518;SDS011;28147;47.520;18.920;2024-02-23T08:39:25;3.25;;;1.58;;
42518;SDS011;28147;47.520;18.920;2024-02-23T08:41:50;3.33;;;1.92;;
42518;SDS011;28147;47.520;18.920;2024-02-23T08:44:16;3.53;;;2.00;;
42518;SDS011;28147;47.520;18.920;2024-02-23T08:46:41;2.47;;;1.65;;
42518;SDS011;28147;47.520;18.920;2024-02-23T08:49:07;3.97;;;1.88;;
42518;SDS011;28147;47.520;18.920;2024-02-23T08:51:33;3.70;;;1.88;;
42518;SDS011;28147;47.520;18.920;2024-02-23T08:53:58;5.55;;;2.00;;
42518;SDS011;28147;47.520;18.920;2024-02-23T08:56:28;4.45;;;2.10;;
42518;SDS011;28147;47.520;18.920;2024-02-23T08:58:53;4.18;;;2.28;;
42518;SDS011;28147;47.520;18.920;2024-02-23T09:01:18;3.80;;;1.70;;
42518;SDS011;28147;47.520;18.920;2024-02-23T09:03:44;4.97;;;1.92;;
42518;SDS011;28147;47.520;18.920;2024-02-23T09:06:10;3.10;;;1.70;;
42518;SDS011;28147;47.520;18.920;2024-02-23T09:08:35;3.17;;;1.70;;
42518;SDS011;28147;47.520;18.920;2024-02-23T09:11:00;3.70;;;1.70;;
42518;SDS011;28147;47.520;18.920;2024-02-23T09:13:26;2.72;;;1.30;;
42518;SDS011;28147;47.520;18.920;2024-02-23T09:15:54;2.97;;;1.45;;
42518;SDS011;28147;47.520;18.920;2024-02-23T09:18:20;2.30;;;1.35;;
42518;SDS011;28147;47.520;18.920;2024-02-23T09:20:45;4.10;;;2.00;;
42518;SDS011;28147;47.520;18.920;2024-02-23T09:23:10;4.30;;;1.80;;
42518;SDS011;28147;47.520;18.920;2024-02-23T09:25:37;3.17;;;1.52;;
42518;SDS011;28147;47.520;18.920;2024-02-23T09:28:02;3.67;;;1.65;;
42518;SDS011;28147;47.520;18.920;2024-02-23T09:30:28;3.10;;;1.40;;
42518;SDS011;28147;47.520;18.920;2024-02-23T09:32:53;4.68;;;1.60;;
42518;SDS011;28147;47.520;18.920;2024-02-23T09:35:19;3.33;;;1.20;;
42518;SDS011;28147;47.520;18.920;2024-02-23T09:37:45;4.18;;;1.67;;
42518;SDS011;28147;47.520;18.920;2024-02-23T09:40:10;3.80;;;1.10;;
42518;SDS011;28147;47.520;18.920;2024-02-23T09:42:36;1.73;;;0.95;;
42518;SDS011;28147;47.520;18.920;2024-02-23T09:45:03;2.83;;;1.20;;
42518;SDS011;28147;47.520;18.920;2024-02-23T09:47:30;2.25;;;1.20;;
42518;SDS011;28147;47.520;18.920;2024-02-23T09:49:56;2.33;;;1.10;;
42518;SDS011;28147;47.520;18.920;2024-02-23T09:52:21;2.20;;;1.10;;
42518;SDS011;28147;47.520;18.920;2024-02-23T09:54:47;3.17;;;1.15;;
42518;SDS011;28147;47.520;18.920;2024-02-23T09:57:13;1.83;;;1.10;;
42518;SDS011;28147;47.520;18.920;2024-02-23T09:59:40;2.45;;;1.00;;
42518;SDS011;28147;47.520;18.920;2024-02-23T10:02:07;1.52;;;0.80;;
42518;SDS011;28147;47.520;18.920;2024-02-23T10:04:35;1.38;;;0.68;;
42518;SDS011;28147;47.520;18.920;2024-02-23T10:07:01;1.90;;;0.70;;
42518;SDS011;28147;47.520;18.920;2024-02-23T10:09:26;1.95;;;0.80;;
42518;SDS011;28147;47.520;18.920;2024-02-23T10:11:52;1.48;;;0.80;;
42518;SDS011;28147;47.520;18.920;2024-02-23T10:14:18;1.20;;;0.55;;
42518;SDS011;28147;47.520;18.920;2024-02-23T10:16:43;1.55;;;0.80;;
42518;SDS011;28147;47.520;18.920;2024-02-23T10:19:08;1.70;;;0.85;;
42518;SDS011;28147;47.520;18.920;2024-02-23T10:21:34;1.58;;;0.80;;
42518;SDS011;28147;47.520;18.920;2024-02-23T10:24:00;1.40;;;0.80;;
42518;SDS011;28147;47.520;18.920;2024-02-23T10:26:26;2.08;;;0.93;;
42518;SDS011;28147;47.520;18.920;2024-02-23T10:28:51;1.88;;;0.82;;
42518;SDS011;28147;47.520;18.920;2024-02-23T10:31:17;5.97;;;2.03;;
42518;SDS011;28147;47.520;18.920;2024-02-23T10:33:43;1.65;;;1.02;;
42518;SDS011;28147;47.520;18.920;2024-02-23T10:36:09;1.77;;;1.00;;
42518;SDS011;28147;47.520;18.920;2024-02-23T10:38:37;1.38;;;0.77;;
42518;SDS011;28147;47.520;18.920;2024-02-23T10:41:05;2.42;;;1.30;;
42518;SDS011;28147;47.520;18.920;2024-02-23T10:43:36;5.93;;;2.42;;
42518;SDS011;28147;47.520;18.920;2024-02-23T10:46:09;2.70;;;1.10;;
42518;SDS011;28147;47.520;18.920;2024-02-23T10:48:38;1.88;;;0.80;;
42518;SDS011;28147;47.520;18.920;2024-02-23T10:51:05;2.20;;;0.95;;
42518;SDS011;28147;47.520;18.920;2024-02-23T10:53:32;1.85;;;0.85;;
42518;SDS011;28147;47.520;18.920;2024-02-23T10:55:59;1.95;;;0.90;;
42518;SDS011;28147;47.520;18.920;2024-02-23T10:58:25;2.67;;;0.85;;
42518;SDS011;28147;47.520;18.920;2024-02-23T11:00:51;6.40;;;3.13;;
42518;SDS011;28147;47.520;18.920;2024-02-23T11:03:17;5.97;;;3.47;;
42518;SDS011;28147;47.520;18.920;2024-02-23T11:05:46;6.45;;;3.50;;
42518;SDS011;28147;47.520;18.920;2024-02-23T11:08:13;4.75;;;2.22;;
42518;SDS011;28147;47.520;18.920;2024-02-23T11:10:43;3.50;;;1.85;;
42518;SDS011;28147;47.520;18.920;2024-02-23T11:13:15;3.75;;;1.95;;
42518;SDS011;28147;47.520;18.920;2024-02-23T11:15:41;4.30;;;2.33;;
42518;SDS011;28147;47.520;18.920;2024-02-23T11:18:49;3.38;;;1.92;;
42518;SDS011;28147;47.520;18.920;2024-02-23T11:20:59;3.75;;;1.80;;
42518;SDS011;28147;47.520;18.920;2024-02-23T11:23:26;2.83;;;1.48;;
42518;SDS011;28147;47.520;18.920;2024-02-23T11:26:25;3.20;;;1.65;;
42518;SDS011;28147;47.520;18.920;2024-02-23T11:28:47;3.42;;;1.70;;
42518;SDS011;28147;47.520;18.920;2024-02-23T11:31:14;4.28;;;2.00;;
42518;SDS011;28147;47.520;18.920;2024-02-23T11:33:50;3.45;;;1.67;;
42518;SDS011;28147;47.520;18.920;2024-02-23T11:36:29;3.72;;;2.28;;
42518;SDS011;28147;47.520;18.920;2024-02-23T11:38:57;4.93;;;2.40;;
42518;SDS011;28147;47.520;18.920;2024-02-23T11:41:24;5.28;;;3.03;;
42518;SDS011;28147;47.520;18.920;2024-02-23T11:43:50;5.00;;;2.40;;
42518;SDS011;28147;47.520;18.920;2024-02-23T11:46:17;5.15;;;2.08;;
42518;SDS011;28147;47.520;18.920;2024-02-23T11:48:43;4.55;;;2.30;;
42518;SDS011;28147;47.520;18.920;2024-02-23T11:51:12;5.10;;;2.50;;
42518;SDS011;28147;47.520;18.920;2024-02-23T11:53:39;5.15;;;2.63;;
42518;SDS011;28147;47.520;18.920;2024-02-23T11:56:05;8.27;;;2.50;;
42518;SDS011;28147;47.520;18.920;2024-02-23T11:58:31;5.78;;;2.85;;
42518;SDS011;28147;47.520;18.920;2024-02-23T12:00:58;5.95;;;2.75;;
42518;SDS011;28147;47.520;18.920;2024-02-23T12:03:25;6.88;;;3.08;;
42518;SDS011;28147;47.520;18.920;2024-02-23T12:05:51;6.47;;;3.25;;
42518;SDS011;28147;47.520;18.920;2024-02-23T12:08:17;5.78;;;2.85;;
42518;SDS011;28147;47.520;18.920;2024-02-23T12:10:43;7.90;;;3.40;;
42518;SDS011;28147;47.520;18.920;2024-02-23T12:13:09;5.32;;;2.90;;
42518;SDS011;28147;47.520;18.920;2024-02-23T12:15:34;5.93;;;2.88;;
42518;SDS011;28147;47.520;18.920;2024-02-23T12:17:59;4.95;;;2.70;;
42518;SDS011;28147;47.520;18.920;2024-02-23T12:20:25;6.20;;;2.80;;
42518;SDS011;28147;47.520;18.920;2024-02-23T12:22:50;4.97;;;2.72;;
42518;SDS011;28147;47.520;18.920;2024-02-23T12:25:21;4.68;;;2.50;;
42518;SDS011;28147;47.520;18.920;2024-02-23T12:27:46;5.18;;;2.97;;
42518;SDS011;28147;47.520;18.920;2024-02-23T12:30:19;4.20;;;2.13;;
42518;SDS011;28147;47.520;18.920;2024-02-23T12:32:44;6.25;;;2.53;;
42518;SDS011;28147;47.520;18.920;2024-02-23T12:35:12;4.70;;;2.05;;
42518;SDS011;28147;47.520;18.920;2024-02-23T12:37:39;3.40;;;1.80;;
42518;SDS011;28147;47.520;18.920;2024-02-23T12:40:06;3.90;;;2.05;;
42518;SDS011;28147;47.520;18.920;2024-02-23T12:42:32;5.10;;;2.40;;
42518;SDS011;28147;47.520;18.920;2024-02-23T12:44:57;4.13;;;2.10;;
42518;SDS011;28147;47.520;18.920;2024-02-23T12:47:22;5.40;;;2.28;;
42518;SDS011;28147;47.520;18.920;2024-02-23T12:49:48;4.00;;;2.28;;
42518;SDS011;28147;47.520;18.920;2024-02-23T12:52:13;4.82;;;2.50;;
42518;SDS011;28147;47.520;18.920;2024-02-23T12:54:39;5.63;;;2.38;;
42518;SDS011;28147;47.520;18.920;2024-02-23T12:57:04;4.78;;;2.25;;
42518;SDS011;28147;47.520;18.920;2024-02-23T12:59:30;5.30;;;2.75;;
42518;SDS011;28147;47.520;18.920;2024-02-23T13:01:55;4.10;;;2.63;;
42518;SDS011;28147;47.520;18.920;2024-02-23T13:04:20;5.13;;;3.05;;
42518;SDS011;28147;47.520;18.920;2024-02-23T13:06:46;5.47;;;3.03;;
42518;SDS011;28147;47.520;18.920;2024-02-23T13:09:12;4.72;;;2.88;;
42518;SDS011;28147;47.520;18.920;2024-02-23T13:11:39;6.85;;;3.05;;
42518;SDS011;28147;47.520;18.920;2024-02-23T13:14:05;5.63;;;2.70;;
42518;SDS011;28147;47.520;18.920;2024-02-23T13:16:31;5.13;;;2.95;;
42518;SDS011;28147;47.520;18.920;2024-02-23T13:18:56;4.43;;;3.05;;
42518;SDS011;28147;47.520;18.920;2024-02-23T13:21:21;6.65;;;3.30;;
42518;SDS011;28147;47.520;18.920;2024-02-23T13:23:47;6.53;;;2.90;;
42518;SDS011;28147;47.520;18.920;2024-02-23T13:26:13;9.02;;;3.25;;
42518;SDS011;28147;47.520;18.920;2024-02-23T13:28:39;7.18;;;3.97;;
42518;SDS011;28147;47.520;18.920;2024-02-23T13:31:06;7.07;;;3.22;;
42518;SDS011;28147;47.520;18.920;2024-02-23T13:33:32;5.25;;;2.97;;
42518;SDS011;28147;47.520;18.920;2024-02-23T13:35:57;4.10;;;2.50;;
42518;SDS011;28147;47.520;18.920;2024-02-23T13:38:22;5.82;;;3.28;;
42518;SDS011;28147;47.520;18.920;2024-02-23T13:40:49;8.77;;;3.40;;
42518;SDS011;28147;47.520;18.920;2024-02-23T13:43:15;6.28;;;3.20;;
42518;SDS011;28147;47.520;18.920;2024-02-23T13:45:50;7.28;;;3.88;;
42518;SDS011;28147;47.520;18.920;2024-02-23T13:48:16;5.45;;;3.25;;
42518;SDS011;28147;47.520;18.920;2024-02-23T13:50:43;8.20;;;4.68;;
42518;SDS011;28147;47.520;18.920;2024-02-23T13:53:12;7.75;;;4.30;;
42518;SDS011;28147;47.520;18.920;2024-02-23T13:55:38;6.60;;;3.90;;
42518;SDS011;28147;47.520;18.920;2024-02-23T13:58:04;7.68;;;3.65;;
42518;SDS011;28147;47.520;18.920;2024-02-23T14:00:29;6.47;;;3.45;;
42518;SDS011;28147;47.520;18.920;2024-02-23T14:02:54;7.88;;;4.07;;
42518;SDS011;28147;47.520;18.920;2024-02-23T14:05:20;10.27;;;4.13;;
42518;SDS011;28147;47.520;18.920;2024-02-23T14:07:46;6.03;;;3.63;;
42518;SDS011;28147;47.520;18.920;2024-02-23T14:10:12;8.13;;;4.07;;
42518;SDS011;28147;47.520;18.920;2024-02-23T14:12:38;6.63;;;3.70;;
42518;SDS011;28147;47.520;18.920;2024-02-23T14:15:04;6.13;;;4.00;;
42518;SDS011;28147;47.520;18.920;2024-02-23T14:17:30;6.78;;;4.60;;
42518;SDS011;28147;47.520;18.920;2024-02-23T14:19:55;10.32;;;5.35;;
42518;SDS011;28147;47.520;18.920;2024-02-23T14:22:21;11.65;;;5.47;;
42518;SDS011;28147;47.520;18.920;2024-02-23T14:24:46;16.42;;;6.30;;
42518;SDS011;28147;47.520;18.920;2024-02-23T14:27:12;10.45;;;5.90;;
42518;SDS011;28147;47.520;18.920;2024-02-23T14:29:37;11.60;;;6.53;;
42518;SDS011;28147;47.520;18.920;2024-02-23T14:32:02;8.82;;;6.00;;
42518;SDS011;28147;47.520;18.920;2024-02-23T14:34:29;9.63;;;5.35;;
42518;SDS011;28147;47.520;18.920;2024-02-23T14:36:55;10.25;;;6.03;;
42518;SDS011;28147;47.520;18.920;2024-02-23T14:39:21;8.18;;;5.93;;
42518;SDS011;28147;47.520;18.920;2024-02-23T14:41:47;9.07;;;5.72;;